createdAt,value
2022-12-03T00:05:22.568Z,79.96
2022-12-03T00:15:22.554Z,79.86
2022-12-03T00:25:22.539Z,79.71
2022-12-03T00:35:22.569Z,79.64
2022-12-03T00:45:22.599Z,79.54
2022-12-03T00:55:22.647Z,79.46
2022-12-03T01:05:25.662Z,79.41
2022-12-03T01:15:25.637Z,79.33
2022-12-03T01:25:25.654Z,79.27
2022-12-03T01:35:25.647Z,79.26
2022-12-03T01:45:25.651Z,79.10
2022-12-03T01:55:25.715Z,78.98
2022-12-03T02:05:26.529Z,78.95
2022-12-03T02:15:26.688Z,78.89
2022-12-03T02:25:26.742Z,78.85
2022-12-03T02:35:26.859Z,78.83
2022-12-03T02:45:26.758Z,78.83
2022-12-03T02:55:30.657Z,78.77
2022-12-03T03:05:28.807Z,78.74
2022-12-03T03:15:28.775Z,78.70
2022-12-03T03:25:28.741Z,78.73
2022-12-03T03:35:28.909Z,78.87
2022-12-03T03:45:29.752Z,78.97
2022-12-03T03:55:29.867Z,79.07
2022-12-03T04:05:29.901Z,79.12
2022-12-03T04:15:29.832Z,79.19
2022-12-03T04:25:48.118Z,79.33
2022-12-03T04:35:47.941Z,79.44
2022-12-03T04:45:48.267Z,79.50
2022-12-03T04:55:48.919Z,79.59
2022-12-03T05:05:48.979Z,79.64
2022-12-03T05:15:48.895Z,79.69
2022-12-03T05:25:48.986Z,79.76
2022-12-03T05:35:49.321Z,79.77
2022-12-03T05:45:50.109Z,79.76
2022-12-03T05:55:49.939Z,79.69
2022-12-03T06:05:49.987Z,79.67
2022-12-03T06:15:50.020Z,79.53
2022-12-03T06:25:52.947Z,79.36
2022-12-03T06:35:52.980Z,79.36
2022-12-03T06:45:52.969Z,79.48
2022-12-03T06:55:53.072Z,79.64
2022-12-03T07:05:53.042Z,79.81
2022-12-03T07:15:53.227Z,79.88
2022-12-03T07:25:53.038Z,79.99
2022-12-03T07:35:53.190Z,80.13
2022-12-03T07:45:53.042Z,80.19
2022-12-03T07:55:53.095Z,80.21
2022-12-03T08:05:53.073Z,80.17
2022-12-03T08:15:53.296Z,80.04
2022-12-03T08:25:53.246Z,79.90
2022-12-03T08:35:53.147Z,79.57
2022-12-03T08:45:53.250Z,79.07
2022-12-03T08:55:56.133Z,78.01
2022-12-03T09:05:56.211Z,78.03
2022-12-03T09:15:56.176Z,77.63
2022-12-03T09:25:56.173Z,76.53
2022-12-03T09:35:58.103Z,76.02
2022-12-03T09:45:58.304Z,75.65
2022-12-03T09:55:58.236Z,74.93
2022-12-03T10:05:58.248Z,73.95
2022-12-03T10:15:58.295Z,73.38
2022-12-03T10:25:58.285Z,72.94
2022-12-03T10:35:58.366Z,72.65
2022-12-03T10:46:03.503Z,71.81
2022-12-03T10:56:01.335Z,71.16
2022-12-03T11:06:01.354Z,70.81
2022-12-03T11:16:01.517Z,70.32
2022-12-03T11:26:01.268Z,70.27
2022-12-03T11:36:01.363Z,70.22
2022-12-03T11:46:04.377Z,70.03
2022-12-03T11:56:08.016Z,69.76
2022-12-03T12:06:08.410Z,69.53
2022-12-03T12:16:09.011Z,69.64
2022-12-03T12:26:09.366Z,69.61
2022-12-03T12:36:09.363Z,69.57
2022-12-03T12:46:45.406Z,69.43
2022-12-03T12:56:14.259Z,69.18
2022-12-03T13:06:14.409Z,69.05
2022-12-03T13:16:15.026Z,69.32
2022-12-03T13:26:30.361Z,69.41
2022-12-03T13:36:17.549Z,69.47
2022-12-03T13:46:18.917Z,69.73
2022-12-03T13:56:19.518Z,70.02
2022-12-03T14:06:19.473Z,70.42
2022-12-03T14:16:19.622Z,70.66
2022-12-03T14:26:19.512Z,70.84
2022-12-03T14:36:19.495Z,71.22
2022-12-03T14:46:19.625Z,71.51
2022-12-03T14:56:19.521Z,71.81
2022-12-03T15:06:19.978Z,72.08
2022-12-03T15:16:20.856Z,72.30
2022-12-03T15:26:20.559Z,72.59
2022-12-03T15:36:20.559Z,72.89
2022-12-03T15:46:20.786Z,73.16
2022-12-03T15:56:20.601Z,73.41
2022-12-03T16:06:20.601Z,73.69
2022-12-03T16:16:20.755Z,73.89
2022-12-03T16:26:22.043Z,74.07
2022-12-03T16:36:21.668Z,74.23
2022-12-03T16:46:25.792Z,74.41
2022-12-03T16:56:26.697Z,74.59
2022-12-03T17:06:26.725Z,74.76
2022-12-03T17:16:27.380Z,74.88
2022-12-03T17:26:27.753Z,75.01
2022-12-03T17:36:27.772Z,75.15
2022-12-03T17:46:27.777Z,75.32
2022-12-03T17:56:27.748Z,75.40
2022-12-03T18:06:27.754Z,75.51
2022-12-03T18:16:27.975Z,75.56
2022-12-03T18:26:27.774Z,75.65
2022-12-03T18:36:29.413Z,75.80
2022-12-03T18:46:53.586Z,75.83
2022-12-03T18:56:31.820Z,75.94
2022-12-03T19:06:31.818Z,76.06
2022-12-03T19:16:31.984Z,76.13
2022-12-03T19:26:31.847Z,76.15
2022-12-03T19:36:31.832Z,76.20
2022-12-03T19:46:32.275Z,76.19
2022-12-03T19:56:32.847Z,76.26
2022-12-03T20:06:32.914Z,76.26
2022-12-03T20:16:32.995Z,76.36
2022-12-03T20:26:32.914Z,76.47
2022-12-03T20:36:33.232Z,76.58
2022-12-03T20:46:33.102Z,76.64
2022-12-03T20:56:32.935Z,76.66
2022-12-03T21:06:33.755Z,76.68
2022-12-03T21:26:38.001Z,76.78
2022-12-03T21:36:38.077Z,76.78
2022-12-03T21:47:11.700Z,76.80
2022-12-03T21:56:40.017Z,76.81
2022-12-03T22:06:40.034Z,76.85
2022-12-03T22:16:43.106Z,76.89
2022-12-03T22:26:43.047Z,76.87
2022-12-03T22:36:43.066Z,76.94
2022-12-03T22:46:43.115Z,76.96
2022-12-03T22:56:43.116Z,76.93
2022-12-03T23:06:43.427Z,77.02
2022-12-03T23:16:43.110Z,76.98
2022-12-03T23:26:43.116Z,76.98
2022-12-03T23:36:43.107Z,77.02
2022-12-03T23:46:43.213Z,77.07
2022-12-03T23:56:43.159Z,77.13
